Time;durP1;ratioP1;P1;durP2;ratioP2;P2;SDS_P1;SDS_P2;PMS_P1;PMS_P2;Temp;Humidity;BMP_temperature;BMP_pressure;BME280_temperature;BME280_humidity;BME280_pressure;Samples;Min_cycle;Max_cycle;Signal;HPM_P1;HPM_P2
2021/08/14 00:01:29;;;;;;;6.20;3.72;;;16.80;99.90;;;16.66;89.92;101884.53;4121909;28;20042;-72
2021/08/14 00:03:30;;;;;;;7.40;3.45;;;16.80;99.90;;;16.62;89.88;101880.53;4121887;28;20034;-72
2021/08/14 00:05:31;;;;;;;7.45;3.47;;;16.70;99.90;;;16.47;90.41;101881.19;4120309;28;20480;-72
2021/08/14 00:07:33;;;;;;;9.63;3.65;;;16.60;99.90;;;16.44;90.66;101880.69;4120682;28;20026;-72
2021/08/14 00:09:34;;;;;;;6.30;3.20;;;16.60;99.90;;;16.51;91.28;101876.34;4120647;28;20077;-72
2021/08/14 00:11:35;;;;;;;6.53;3.20;;;16.60;99.90;;;16.53;90.28;101877.84;4152921;28;20131;-72
2021/08/14 00:13:36;;;;;;;7.00;3.33;;;16.60;99.90;;;16.49;90.58;101876.50;4136570;28;20526;-72
2021/08/14 00:15:37;;;;;;;8.52;3.47;;;16.50;99.90;;;16.61;89.69;101876.22;4120583;28;20023;-72
2021/08/14 00:17:38;;;;;;;9.55;3.85;;;16.60;99.90;;;16.62;88.58;101861.88;4121681;28;20035;-72
2021/08/14 00:19:39;;;;;;;7.88;3.35;;;16.50;99.90;;;16.53;89.94;101863.69;4121454;28;20086;-72
2021/08/14 00:21:40;;;;;;;10.73;4.90;;;16.60;99.90;;;16.48;89.37;101856.22;4120015;28;20030;-72
2021/08/14 00:23:41;;;;;;;9.27;4.00;;;16.50;99.90;;;16.62;88.95;101857.41;4136470;28;20414;-72
2021/08/14 00:25:41;;;;;;;7.57;3.70;;;16.50;99.90;;;16.64;89.06;101866.03;4120264;28;20115;-72
2021/08/14 00:27:42;;;;;;;9.25;3.20;;;16.60;99.90;;;16.53;90.01;101859.19;4120336;28;20050;-72
2021/08/14 00:29:44;;;;;;;9.13;3.67;;;16.60;99.90;;;16.57;89.74;101855.25;4136276;28;20045;-72
2021/08/14 00:31:46;;;;;;;8.38;3.78;;;16.50;99.90;;;16.57;89.22;101852.59;4136294;28;20026;-72
2021/08/14 00:33:46;;;;;;;8.68;4.38;;;16.50;99.90;;;16.52;89.82;101854.88;4136299;28;20031;-72
2021/08/14 00:35:47;;;;;;;6.75;3.20;;;16.50;99.90;;;16.41;90.20;101841.91;4119840;28;20058;-72
2021/08/14 00:37:48;;;;;;;6.57;3.72;;;16.50;99.90;;;16.44;89.91;101846.06;4121242;28;20475;-72
2021/08/14 00:39:50;;;;;;;5.95;3.13;;;16.50;99.90;;;16.43;89.65;101847.88;4121338;28;20030;-72
2021/08/14 00:41:51;;;;;;;10.05;4.03;;;16.40;99.90;;;16.41;89.48;101849.06;4121204;28;20069;-72
2021/08/14 00:43:52;;;;;;;9.75;3.35;;;16.40;99.90;;;16.50;89.45;101842.72;4120144;28;20063;-72
2021/08/14 00:45:54;;;;;;;11.40;3.50;;;16.40;99.90;;;16.34;90.45;101835.56;4136094;28;20064;-72
2021/08/14 00:47:55;;;;;;;10.65;3.22;;;16.40;99.90;;;16.36;90.30;101840.75;4121297;28;20074;-72
2021/08/14 00:49:56;;;;;;;7.03;3.17;;;16.40;99.90;;;16.40;89.92;101832.22;4120033;28;20026;-72
2021/08/14 00:51:58;;;;;;;7.93;3.30;;;16.40;99.90;;;16.26;90.80;101834.75;4121122;28;20498;-72
2021/08/14 00:53:59;;;;;;;6.97;3.47;;;16.30;99.90;;;16.17;91.21;101831.25;4121106;28;20086;-72
2021/08/14 00:56:00;;;;;;;8.38;3.83;;;16.30;99.90;;;16.14;91.59;101830.75;4119996;28;20027;-72
2021/08/14 00:58:01;;;;;;;5.50;3.47;;;16.20;99.90;;;16.14;90.90;101841.38;4119990;28;20422;-72
2021/08/14 01:00:03;;;;;;;10.23;3.53;;;16.20;99.90;;;16.23;90.58;101843.06;4119860;28;20027;-72
2021/08/14 01:02:06;;;;;;;8.20;3.17;;;16.20;99.90;;;16.03;92.13;101839.91;4121008;28;20037;-72
2021/08/14 01:04:10;;;;;;;8.07;3.35;;;16.20;99.90;;;15.84;93.21;101837.53;4121105;28;20065;-72
2021/08/14 01:06:13;;;;;;;;;;;16.10;99.90;;;15.71;93.80;101845.97;4121135;28;20026;-72
2021/08/14 01:08:15;;;;;;;11.05;3.53;;;16.00;99.90;;;15.71;94.32;101845.16;4120973;28;20395;-72
2021/08/14 01:10:16;;;;;;;9.07;3.22;;;15.90;99.90;;;15.70;94.53;101843.47;4120734;28;20027;-72
2021/08/14 01:12:17;;;;;;;8.27;3.28;;;15.90;99.90;;;15.70;94.98;101846.97;4120867;28;20105;-72
2021/08/14 01:14:18;;;;;;;10.07;3.63;;;15.90;99.90;;;15.61;95.33;101839.97;4120905;28;20019;-72
2021/08/14 01:16:19;;;;;;;12.95;4.25;;;15.80;99.90;;;15.62;95.40;101844.28;4151892;28;20406;-72
2021/08/14 01:18:20;;;;;;;8.18;3.03;;;15.80;99.90;;;15.63;95.81;101842.44;4135588;28;20022;-72
2021/08/14 01:20:21;;;;;;;7.38;3.72;;;15.70;99.90;;;15.63;95.54;101835.31;4119366;28;20082;-72
2021/08/14 01:22:22;;;;;;;7.25;3.40;;;15.70;99.90;;;15.76;93.21;101826.88;4135618;28;20058;-72
2021/08/14 01:24:23;;;;;;;10.43;4.00;;;15.80;99.90;;;15.80;92.77;101825.56;4120583;28;20019;-72
2021/08/14 01:26:24;;;;;;;8.07;3.03;;;15.80;99.90;;;15.69;93.53;101832.00;4119321;28;20038;-72
2021/08/14 01:28:25;;;;;;;10.30;4.13;;;15.80;99.90;;;15.68;93.07;101829.53;4135477;28;20030;-72
2021/08/14 01:30:26;;;;;;;8.80;3.42;;;15.70;99.90;;;15.86;92.22;101827.56;4119360;28;20026;-72
2021/08/14 01:32:28;;;;;;;7.75;3.05;;;15.80;99.90;;;15.85;92.55;101825.91;4135373;28;20034;-72
2021/08/14 01:34:29;;;;;;;8.90;3.28;;;15.90;99.90;;;15.78;92.99;101820.38;4103279;28;20030;-72
2021/08/14 01:36:30;;;;;;;8.25;3.65;;;15.80;99.90;;;15.74;93.32;101828.88;4119082;28;20027;-72
2021/08/14 01:38:31;;;;;;;9.15;3.88;;;15.80;99.90;;;15.78;92.44;101830.19;4120515;28;20038;-72
2021/08/14 01:40:33;;;;;;;10.68;3.85;;;15.80;99.90;;;15.88;91.38;101818.41;4120367;28;20031;-72
2021/08/14 01:42:33;;;;;;;8.82;3.45;;;15.80;99.90;;;15.81;91.98;101809.41;4135070;28;20418;-72
2021/08/14 01:44:36;;;;;;;8.90;3.10;;;15.80;99.90;;;15.84;92.17;101819.72;4119025;28;20031;-72
2021/08/14 01:46:41;;;;;;;10.43;3.13;;;15.80;99.90;;;15.87;91.99;101813.25;4135329;28;20022;-72
2021/08/14 01:48:42;;;;;;;9.73;3.58;;;15.80;99.90;;;15.78;92.47;101806.25;4119233;28;20034;-72
2021/08/14 01:50:43;;;;;;;14.82;4.57;;;15.80;99.90;;;15.77;92.78;101812.59;4118483;28;20565;-72
2021/08/14 01:52:44;;;;;;;8.60;3.47;;;15.80;99.90;;;15.81;92.37;101816.56;4119169;28;20089;-72
2021/08/14 01:54:47;;;;;;;8.57;4.20;;;15.80;99.90;;;15.64;92.75;101807.72;4135278;28;20466;-72
2021/08/14 01:56:52;;;;;;;9.32;4.10;;;15.70;99.90;;;15.80;91.89;101809.59;4120251;28;20061;-72
2021/08/14 01:58:54;;;;;;;8.63;3.42;;;15.80;99.90;;;15.68;91.80;101808.25;4119004;28;20038;-72
2021/08/14 02:00:54;;;;;;;8.93;4.07;;;15.80;99.90;;;15.80;91.66;101818.38;4120102;28;20030;-72
2021/08/14 02:02:56;;;;;;;8.40;3.65;;;15.80;99.90;;;15.60;92.51;101822.34;4119148;28;20058;-72
2021/08/14 02:04:57;;;;;;;10.25;4.00;;;15.70;99.90;;;15.58;92.78;101810.19;4134794;28;20027;-72
2021/08/14 02:06:59;;;;;;;11.90;4.32;;;15.70;99.90;;;15.55;93.29;101803.38;4118907;28;20105;-72
2021/08/14 02:09:00;;;;;;;9.90;3.65;;;15.60;99.90;;;15.49;93.31;101810.19;4119046;28;20116;-72
2021/08/14 02:11:10;;;;;;;9.00;3.35;;;15.60;99.90;;;15.37;94.23;101805.28;4118759;28;20110;-72
2021/08/14 02:13:11;;;;;;;9.00;3.70;;;15.60;99.90;;;15.34;93.93;101803.78;4118985;28;20106;-72
2021/08/14 02:15:12;;;;;;;6.38;3.05;;;15.50;99.90;;;15.39;93.61;101798.81;4102715;28;20020;-72
2021/08/14 02:17:13;;;;;;;8.73;3.00;;;15.50;99.90;;;15.30;94.30;101799.78;4118939;28;20027;-72
2021/08/14 02:19:14;;;;;;;9.95;3.58;;;15.50;99.90;;;15.20;94.85;101796.41;4134971;28;20085;-72
2021/08/14 02:21:15;;;;;;;7.65;3.35;;;15.40;99.90;;;15.18;95.49;101793.09;4118618;28;20043;-72
2021/08/14 02:23:16;;;;;;;6.60;3.08;;;15.40;99.90;;;15.22;95.61;101797.09;4119859;28;20494;-72
2021/08/14 02:25:17;;;;;;;9.82;3.83;;;15.40;99.90;;;15.14;96.15;101794.38;4119804;28;20037;-72
2021/08/14 02:27:18;;;;;;;10.05;3.30;;;15.30;99.90;;;15.15;96.02;101796.06;4118821;28;20125;-72
2021/08/14 02:29:19;;;;;;;9.18;3.38;;;15.30;99.90;;;15.14;95.76;101805.03;4134737;28;20041;-72
2021/08/14 02:31:20;;;;;;;6.32;2.60;;;15.30;99.90;;;15.19;95.32;101791.25;4119688;28;20035;-72
2021/08/14 02:33:21;;;;;;;4.32;2.22;;;15.20;99.90;;;15.12;95.78;101792.88;4118760;28;20031;-72
2021/08/14 02:35:21;;;;;;;10.60;3.58;;;15.30;99.90;;;15.03;95.77;101791.19;4134511;28;20027;-72
2021/08/14 02:37:22;;;;;;;7.43;3.53;;;15.20;99.90;;;15.05;96.10;101803.34;4118681;28;20030;-72
2021/08/14 02:39:23;;;;;;;5.45;2.75;;;15.20;99.90;;;15.05;96.22;101803.34;4134534;28;20027;-72
2021/08/14 02:41:24;;;;;;;6.63;3.13;;;15.10;99.90;;;15.06;95.93;101798.84;4118529;28;20062;-72
2021/08/14 02:43:25;;;;;;;7.78;2.95;;;15.10;99.90;;;15.08;95.50;101800.38;4102498;28;20110;-72
2021/08/14 02:45:26;;;;;;;9.18;3.35;;;15.10;99.90;;;15.11;94.55;101799.22;4128607;28;20026;-72
2021/08/14 02:47:27;;;;;;;7.03;3.17;;;15.10;99.90;;;15.07;94.98;101800.50;4134564;28;20058;-72
2021/08/14 02:49:28;;;;;;;9.15;3.03;;;15.10;99.90;;;15.02;94.92;101790.38;4119816;28;20376;-72
2021/08/14 02:51:29;;;;;;;10.20;3.60;;;15.10;99.90;;;15.08;94.24;101795.06;4118263;28;20034;-72
2021/08/14 02:53:30;;;;;;;7.85;3.03;;;15.10;99.90;;;15.11;93.95;101796.56;4118483;28;20086;-72
2021/08/14 02:55:31;;;;;;;7.45;2.72;;;15.10;99.90;;;15.02;94.33;101787.72;4119575;28;20022;-72
2021/08/14 02:57:32;;;;;;;9.02;3.47;;;15.10;99.90;;;15.03;94.05;101791.19;4119699;28;20031;-72
2021/08/14 02:59:33;;;;;;;7.10;3.50;;;15.10;99.90;;;15.06;94.15;101801.50;4118494;28;20039;-72
2021/08/14 03:01:33;;;;;;;7.68;3.25;;;15.10;99.90;;;15.00;93.72;101789.69;4119610;28;20042;-72
2021/08/14 03:03:34;;;;;;;9.23;3.90;;;15.00;99.90;;;14.90;93.88;101786.34;4118529;28;20027;-72
2021/08/14 03:05:35;;;;;;;8.43;3.42;;;15.00;99.90;;;14.92;94.23;101793.16;4134160;28;20541;-72
2021/08/14 03:07:36;;;;;;;8.90;3.25;;;15.00;99.90;;;14.96;93.82;101793.66;4118466;28;20031;-72
2021/08/14 03:09:37;;;;;;;9.93;3.75;;;15.00;99.90;;;14.98;93.61;101786.38;4119564;28;20077;-72
2021/08/14 03:11:38;;;;;;;7.28;2.83;;;15.00;99.90;;;14.91;93.90;101780.00;4118282;28;20099;-72
2021/08/14 03:13:39;;;;;;;5.57;3.10;;;14.90;99.90;;;14.90;93.55;101781.81;4122227;28;20023;-72
2021/08/14 03:15:40;;;;;;;6.28;3.45;;;14.90;99.90;;;14.81;93.86;101771.34;4121440;28;20447;-72
2021/08/14 03:17:41;;;;;;;7.57;2.97;;;14.90;99.90;;;14.89;92.99;101774.88;4137452;28;20037;-72
2021/08/14 03:19:42;;;;;;;5.78;2.63;;;14.90;99.90;;;14.85;93.19;101768.19;4120933;28;20035;-72
2021/08/14 03:21:43;;;;;;;10.95;3.50;;;14.90;99.90;;;14.89;92.65;101779.34;4137320;28;20129;-72
2021/08/14 03:23:45;;;;;;;10.57;3.40;;;14.80;99.90;;;14.75;93.09;101769.31;4121306;28;20031;-72
2021/08/14 03:25:45;;;;;;;8.27;3.35;;;14.80;99.90;;;14.66;93.27;101772.91;4122465;28;20110;-72
2021/08/14 03:27:46;;;;;;;6.45;3.20;;;14.70;99.90;;;14.62;93.11;101761.78;4121273;28;20462;-72
2021/08/14 03:29:47;;;;;;;5.35;2.55;;;14.70;99.90;;;14.61;93.45;101773.38;4137324;28;20034;-72
2021/08/14 03:31:48;;;;;;;6.28;3.20;;;14.70;99.90;;;14.58;94.07;101775.50;4121211;28;20104;-72
2021/08/14 03:33:50;;;;;;;10.30;3.67;;;14.60;99.90;;;14.59;93.78;101769.22;4122409;28;20031;-72
2021/08/14 03:35:51;;;;;;;8.65;3.20;;;14.60;99.90;;;14.67;93.53;101771.91;4120926;28;20026;-72
2021/08/14 03:37:52;;;;;;;9.27;3.72;;;14.70;99.90;;;14.67;93.07;101763.94;4137292;28;20034;-72
2021/08/14 03:39:52;;;;;;;6.93;2.70;;;14.60;99.90;;;14.60;93.52;101763.75;4121143;28;20038;-72
2021/08/14 03:41:53;;;;;;;8.73;3.40;;;14.60;99.90;;;14.50;93.93;101767.50;4120987;28;20047;-72
2021/08/14 03:43:54;;;;;;;7.43;3.45;;;14.60;99.90;;;14.47;93.71;101759.84;4120975;28;20094;-72
2021/08/14 03:45:55;;;;;;;6.13;2.83;;;14.60;99.90;;;14.52;93.75;101760.19;4136971;28;20045;-72
2021/08/14 03:47:56;;;;;;;9.27;3.63;;;14.60;99.90;;;14.44;93.54;101747.72;4122204;28;20491;-72
2021/08/14 03:49:57;;;;;;;7.82;3.03;;;14.50;99.90;;;14.49;93.79;101761.34;4121883;28;20038;-72
2021/08/14 03:51:58;;;;;;;10.05;3.35;;;14.50;99.90;;;14.51;93.37;101751.44;4120843;28;20053;-72
2021/08/14 03:53:59;;;;;;;5.25;2.53;;;14.60;99.90;;;14.50;93.87;101749.75;4120748;28;20545;-72
2021/08/14 03:56:00;;;;;;;7.30;3.00;;;14.50;99.90;;;14.52;93.58;101746.94;4137039;28;20529;-72
2021/08/14 03:58:01;;;;;;;7.45;3.08;;;14.50;99.90;;;14.49;94.01;101749.88;4122019;28;20066;-72
2021/08/14 04:00:04;;;;;;;7.43;3.00;;;14.50;99.90;;;14.45;94.06;101740.59;4121924;28;20054;-72
2021/08/14 04:02:05;;;;;;;7.45;2.92;;;14.50;99.90;;;14.54;93.51;101747.63;4121588;28;20030;-72
2021/08/14 04:04:06;;;;;;;6.90;3.17;;;14.50;99.90;;;14.59;92.91;101751.47;4120858;28;20035;-72
2021/08/14 04:06:07;;;;;;;9.02;3.08;;;14.50;99.90;;;14.45;93.33;101733.47;4121659;28;20027;-72
2021/08/14 04:08:08;;;;;;;6.15;3.10;;;14.50;99.90;;;14.43;93.44;101742.56;4121843;28;20042;-72
2021/08/14 04:10:09;;;;;;;7.82;3.22;;;14.50;99.90;;;14.40;93.78;101741.88;4121818;28;20027;-72
2021/08/14 04:12:10;;;;;;;6.85;2.55;;;14.50;99.90;;;14.36;93.51;101731.75;4120627;28;20410;-72
2021/08/14 04:14:11;;;;;;;10.38;3.10;;;14.40;99.90;;;14.42;93.57;101740.91;4120538;28;20103;-72
2021/08/14 04:16:12;;;;;;;7.45;3.13;;;14.40;99.90;;;14.38;93.50;101735.06;4120615;28;20066;-72
2021/08/14 04:18:13;;;;;;;6.40;2.97;;;14.50;99.90;;;14.37;93.65;101739.53;4121640;28;20038;-72
2021/08/14 04:20:14;;;;;;;5.85;2.97;;;14.40;99.90;;;14.35;93.96;101743.34;4121029;28;20093;-72
2021/08/14 04:22:15;;;;;;;6.82;3.42;;;14.40;99.90;;;14.37;94.18;101736.88;4120522;28;20070;-72
2021/08/14 04:24:16;;;;;;;8.40;2.58;;;14.40;99.90;;;14.45;94.98;101743.25;4121454;28;20038;-72
2021/08/14 04:26:17;;;;;;;6.15;2.83;;;14.40;99.90;;;14.43;95.33;101737.25;4121744;28;20502;-72
2021/08/14 04:28:18;;;;;;;8.02;2.83;;;14.40;99.90;;;14.36;96.17;101737.06;4120233;28;20034;-72
2021/08/14 04:30:19;;;;;;;6.07;3.13;;;14.50;99.90;;;14.34;96.76;101739.84;4136465;28;20029;-72
2021/08/14 04:32:20;;;;;;;8.52;4.20;;;14.50;99.90;;;14.53;96.69;101741.47;4121429;28;20035;-72
2021/08/14 04:34:21;;;;;;;5.60;3.35;;;14.50;99.90;;;14.54;96.54;101737.84;4121412;28;20368;-72
2021/08/14 04:36:22;;;;;;;5.82;2.85;;;14.60;99.90;;;14.46;97.93;101728.97;4120943;28;20033;-72
2021/08/14 04:38:23;;;;;;;7.60;3.55;;;14.50;99.90;;;14.60;97.36;101728.41;4121490;28;20113;-72
2021/08/14 04:40:24;;;;;;;6.22;3.40;;;14.50;99.90;;;14.51;97.68;101737.31;4121503;28;20163;-72
2021/08/14 04:42:25;;;;;;;9.00;3.15;;;14.60;99.90;;;14.51;97.83;101734.66;4121051;28;20051;-72
2021/08/14 04:44:26;;;;;;;8.82;3.47;;;14.60;99.90;;;14.72;97.72;101737.75;4103859;28;20039;-72
2021/08/14 04:46:26;;;;;;;9.93;3.65;;;14.60;99.90;;;14.68;97.98;101733.75;4136105;28;20030;-72
2021/08/14 04:48:27;;;;;;;10.00;3.70;;;14.70;99.90;;;14.51;98.39;101737.31;4121238;28;20037;-72
2021/08/14 04:50:28;;;;;;;8.68;4.25;;;14.60;99.90;;;14.53;98.34;101730.00;4120930;28;20049;-72
2021/08/14 04:52:31;;;;;;;10.50;4.15;;;14.60;99.90;;;14.56;98.92;101745.63;4121006;28;20027;-72
2021/08/14 04:54:32;;;;;;;8.45;3.75;;;14.60;99.90;;;14.55;98.94;101741.31;4121137;28;20038;-72
2021/08/14 04:56:33;;;;;;;10.18;4.38;;;14.60;99.90;;;14.67;98.59;101737.38;4119694;28;20031;-72
2021/08/14 04:58:34;;;;;;;8.10;3.40;;;14.70;99.90;;;14.46;99.23;101728.97;4120929;28;20058;-72
2021/08/14 05:00:35;;;;;;;14.48;4.75;;;14.70;99.90;;;14.54;99.49;101734.34;4120652;28;20403;-72
2021/08/14 05:02:36;;;;;;;9.32;3.38;;;14.60;99.90;;;14.50;99.98;101739.13;4121085;28;20030;-72
2021/08/14 05:04:36;;;;;;;8.70;3.45;;;14.60;99.90;;;14.49;99.86;101745.41;4119533;28;20027;-72
2021/08/14 05:06:39;;;;;;;8.20;3.35;;;14.60;99.90;;;14.44;100.00;101741.56;4120909;28;20469;-72
2021/08/14 05:08:40;;;;;;;7.80;3.67;;;14.60;99.90;;;14.48;99.33;101732.31;4119527;28;20023;-72
2021/08/14 05:10:41;;;;;;;8.93;3.88;;;14.60;99.90;;;14.84;97.63;101747.13;4120747;28;20034;-72
2021/08/14 05:12:43;;;;;;;8.18;4.25;;;14.70;99.90;;;14.69;97.96;101749.53;4119718;28;20023;-72
2021/08/14 05:14:44;;;;;;;8.73;3.58;;;14.70;99.90;;;14.51;99.28;101739.97;4119591;28;20057;-72
2021/08/14 05:16:45;;;;;;;11.45;4.53;;;14.60;99.90;;;14.69;98.95;101751.34;4119392;28;20063;-72
2021/08/14 05:18:45;;;;;;;11.50;4.90;;;14.70;99.90;;;14.59;99.49;101730.22;4119605;28;20030;-72
2021/08/14 05:20:46;;;;;;;10.25;4.03;;;14.70;99.90;;;14.66;98.67;101735.75;4120388;28;20026;-72
2021/08/14 05:22:47;;;;;;;12.15;4.20;;;14.70;99.90;;;14.65;99.14;101742.03;4135412;28;20092;-72
2021/08/14 05:24:48;;;;;;;8.25;4.53;;;14.70;99.90;;;14.59;99.77;101737.34;4120498;28;20019;-72
2021/08/14 05:26:49;;;;;;;10.23;4.03;;;14.80;99.90;;;14.61;99.98;101738.00;4120631;28;20113;-72
2021/08/14 05:28:50;;;;;;;10.63;3.60;;;14.70;99.90;;;14.55;100.00;101730.69;4119508;28;20586;-72
2021/08/14 05:30:51;;;;;;;10.55;4.63;;;14.70;99.90;;;14.61;100.00;101733.53;4120498;28;20086;-72
2021/08/14 05:32:52;;;;;;;7.97;4.38;;;14.80;99.90;;;14.68;100.00;101734.59;4103244;28;20035;-72
2021/08/14 05:34:52;;;;;;;8.05;3.65;;;14.80;99.90;;;14.64;100.00;101737.69;4134699;28;20521;-72
2021/08/14 05:36:53;;;;;;;10.35;4.03;;;14.80;99.90;;;14.56;100.00;101730.53;4120475;28;20027;-72
2021/08/14 05:38:54;;;;;;;8.73;3.92;;;14.80;99.90;;;14.58;100.00;101740.97;4120527;28;20434;-72
2021/08/14 05:40:55;;;;;;;7.57;4.40;;;14.80;99.90;;;14.48;100.00;101737.63;4119223;28;20066;-72
2021/08/14 05:42:56;;;;;;;12.77;4.70;;;14.70;99.90;;;14.48;100.00;101737.63;4103181;28;20051;-72
2021/08/14 05:44:57;;;;;;;10.45;3.75;;;14.70;99.90;;;14.63;100.00;101744.03;4119154;28;20019;-72
2021/08/14 05:46:58;;;;;;;13.50;4.45;;;14.80;99.90;;;14.71;99.97;101738.75;4135302;28;20026;-72
2021/08/14 05:48:59;;;;;;;7.93;3.95;;;14.80;99.90;;;14.90;98.71;101733.19;4119193;28;20070;-72
2021/08/14 05:51:00;;;;;;;12.13;4.55;;;14.90;99.90;;;14.88;98.87;101729.84;4119831;28;20142;-72
2021/08/14 05:53:01;;;;;;;6.80;3.60;;;14.90;99.90;;;14.88;99.44;101735.16;4119169;28;20028;-72
2021/08/14 05:55:02;;;;;;;8.23;3.65;;;15.00;99.90;;;14.75;100.00;101734.78;4135194;28;20494;-72
2021/08/14 05:57:03;;;;;;;13.43;3.80;;;14.90;99.90;;;14.80;99.75;101735.13;4120229;28;20030;-72
2021/08/14 05:59:04;;;;;;;7.97;3.90;;;15.00;99.90;;;14.76;100.00;101739.09;4118864;28;20110;-72
2021/08/14 06:01:06;;;;;;;12.68;4.95;;;15.00;99.90;;;14.85;100.00;101743.44;4118912;28;20113;-72
2021/08/14 06:03:07;;;;;;;14.25;4.95;;;15.00;99.90;;;15.01;99.63;101745.34;4118927;28;20477;-72
2021/08/14 06:05:09;;;;;;;11.70;4.72;;;15.00;99.90;;;14.99;98.53;101732.25;4118616;28;20023;-72
2021/08/14 06:07:10;;;;;;;10.35;4.10;;;15.10;99.90;;;15.03;98.73;101736.22;4119995;28;20494;-72
2021/08/14 06:09:12;;;;;;;9.80;4.13;;;15.10;99.90;;;15.04;98.87;101729.94;4120126;28;20023;-72
2021/08/14 06:11:13;;;;;;;10.75;4.30;;;15.20;99.90;;;15.11;98.74;101720.31;4118873;28;20081;-72
2021/08/14 06:13:14;;;;;;;12.95;4.28;;;15.20;99.90;;;15.33;97.72;101727.69;4120038;28;20390;-72
2021/08/14 06:15:15;;;;;;;10.70;4.65;;;15.30;99.90;;;15.25;97.65;101730.31;4119890;28;20046;-72
2021/08/14 06:17:16;;;;;;;9.77;4.65;;;15.40;99.90;;;15.34;97.69;101737.31;4118478;28;20031;-72
2021/08/14 06:19:17;;;;;;;8.45;4.72;;;15.50;99.90;;;15.37;98.10;101734.34;4118738;28;20033;-73
2021/08/14 06:21:18;;;;;;;11.60;4.47;;;15.50;99.90;;;15.39;97.49;101734.16;4102079;28;20089;-72
2021/08/14 06:23:19;;;;;;;12.05;4.28;;;15.50;99.90;;;15.50;97.05;101737.38;4120341;28;20127;-72
2021/08/14 06:25:20;;;;;;;10.25;3.88;;;15.60;99.90;;;15.50;96.81;101733.91;4122390;28;20047;-72
2021/08/14 06:27:22;;;;;;;10.93;4.25;;;15.60;99.90;;;15.48;97.18;101730.56;4118528;28;20038;-73
2021/08/14 06:29:23;;;;;;;9.98;4.10;;;15.60;99.90;;;15.49;97.21;101742.88;4118334;28;20486;-72
2021/08/14 06:31:24;;;;;;;9.88;3.55;;;15.70;99.90;;;15.31;98.25;101739.47;4117368;28;20039;-72
2021/08/14 06:33:25;;;;;;;9.10;4.20;;;15.70;99.90;;;15.42;98.33;101742.66;4118608;28;20034;-72
2021/08/14 06:35:25;;;;;;;12.10;5.13;;;15.70;99.90;;;15.56;98.12;101740.41;4137789;28;20586;-71
2021/08/14 06:37:26;;;;;;;14.75;4.80;;;15.70;99.90;;;15.67;96.73;101732.94;4123608;28;20054;-72
2021/08/14 06:39:27;;;;;;;11.77;4.80;;;15.80;99.90;;;15.67;96.93;101737.41;4119665;28;20033;-74
2021/08/14 06:41:28;;;;;;;10.90;4.40;;;15.90;99.90;;;15.66;97.28;101733.91;4119519;28;20047;-74
2021/08/14 06:43:29;;;;;;;9.30;4.03;;;15.90;99.90;;;15.63;97.87;101736.06;4125303;28;20086;-74
2021/08/14 06:45:30;;;;;;;10.35;4.50;;;15.90;99.90;;;15.67;98.08;101732.09;4134671;28;20029;-74
2021/08/14 06:47:31;;;;;;;10.15;4.22;;;15.90;99.90;;;15.59;98.46;101730.22;4119412;28;20035;-73
2021/08/14 06:49:32;;;;;;;13.48;4.65;;;15.90;99.90;;;15.70;97.85;101742.41;4122772;28;20031;-74
2021/08/14 06:51:33;;;;;;;11.93;4.32;;;16.00;99.90;;;15.83;97.19;101732.13;4121650;28;20489;-73
2021/08/14 06:53:34;;;;;;;10.45;4.63;;;16.00;99.90;;;15.99;97.07;101748.06;4122958;28;20059;-73
2021/08/14 06:55:35;;;;;;;10.88;3.90;;;16.10;99.90;;;15.95;96.65;101746.72;4121490;28;20141;-73
2021/08/14 06:57:35;;;;;;;11.93;3.90;;;16.10;99.90;;;15.96;97.40;101748.38;4121718;28;20444;-73
2021/08/14 06:59:36;;;;;;;9.80;3.70;;;16.20;99.90;;;16.04;96.89;101749.22;4122836;28;20046;-73
2021/08/14 07:01:37;;;;;;;8.70;3.63;;;16.20;99.90;;;16.07;97.04;101741.91;4122630;28;20041;-73
2021/08/14 07:03:38;;;;;;;8.30;4.10;;;16.30;99.90;;;16.19;96.23;101751.22;4121456;28;20090;-73
2021/08/14 07:05:40;;;;;;;8.95;3.58;;;16.40;99.90;;;16.15;97.19;101752.56;4118094;28;20031;-73
2021/08/14 07:07:41;;;;;;;10.52;4.18;;;16.40;99.90;;;16.09;96.68;101751.41;4121224;28;20039;-73
2021/08/14 07:09:42;;;;;;;11.98;4.43;;;16.40;99.90;;;16.14;96.27;101745.56;4124745;28;20066;-73
2021/08/14 07:11:45;;;;;;;6.88;4.10;;;16.50;99.90;;;16.30;95.92;101750.88;4123902;28;20030;-73
2021/08/14 07:13:48;;;;;;;10.73;4.43;;;16.60;99.90;;;16.37;96.01;101742.03;4122186;28;20501;-73
2021/08/14 07:15:48;;;;;;;12.65;3.95;;;16.60;99.90;;;16.30;95.92;101740.22;4121054;28;20406;-73
2021/08/14 07:17:50;;;;;;;12.32;4.57;;;16.70;99.90;;;16.40;95.57;101755.00;4121067;28;20035;-72
2021/08/14 07:19:51;;;;;;;13.10;3.92;;;16.70;99.90;;;16.44;95.87;101743.03;4135414;28;20034;-73
2021/08/14 07:21:52;;;;;;;10.23;3.50;;;16.80;99.90;;;16.43;96.02;101741.34;4119640;28;20108;-72
2021/08/14 07:23:53;;;;;;;8.48;3.80;;;16.80;99.90;;;16.47;96.58;101742.69;4136791;28;20030;-73
2021/08/14 07:25:54;;;;;;;8.23;4.20;;;16.80;99.90;;;16.66;95.38;101746.00;4121063;28;20030;-73
2021/08/14 07:27:55;;;;;;;9.40;4.50;;;16.90;99.90;;;16.65;94.85;101742.50;4119773;28;20023;-73
2021/08/14 07:29:56;;;;;;;10.10;4.45;;;17.00;99.90;;;16.73;94.85;101741.63;4136690;28;20101;-73
2021/08/14 07:31:57;;;;;;;8.20;3.67;;;17.00;99.90;;;16.74;94.64;101741.47;4121728;28;20069;-73
2021/08/14 07:33:58;;;;;;;12.98;4.70;;;17.10;99.90;;;16.79;94.79;101731.13;4121784;28;20023;-73
2021/08/14 07:35:59;;;;;;;8.65;4.00;;;17.10;99.90;;;16.89;94.85;101745.09;4121591;28;20034;-72
2021/08/14 07:38:00;;;;;;;7.53;4.35;;;17.20;99.90;;;16.91;94.81;101739.56;4121868;28;20522;-74
2021/08/14 07:40:01;;;;;;;11.80;3.72;;;17.30;99.90;;;16.93;93.91;101738.41;4099007;29;20055;-74
2021/08/14 07:42:03;;;;;;;10.98;4.32;;;17.30;99.90;;;17.10;94.10;101736.50;4112627;28;20070;-74
2021/08/14 07:44:04;;;;;;;13.88;5.15;;;17.40;99.90;;;17.17;93.93;101735.59;4120479;28;20026;-74
2021/08/14 07:46:05;;;;;;;7.55;3.47;;;17.50;99.90;;;17.20;94.13;101738.94;4116340;28;20235;-74
2021/08/14 07:48:07;;;;;;;8.02;3.85;;;17.50;99.90;;;17.18;94.02;101728.44;4115194;28;20055;-74
2021/08/14 07:50:09;;;;;;;7.03;3.92;;;17.60;99.90;;;17.27;93.97;101734.56;4104547;28;20111;-73
2021/08/14 07:52:10;;;;;;;8.40;4.30;;;17.70;99.90;;;17.34;92.12;101731.03;4103348;28;20027;-72
2021/08/14 07:54:11;;;;;;;11.32;4.75;;;17.80;99.90;;;17.43;92.73;101739.81;4104723;28;20028;-73
2021/08/14 07:56:12;;;;;;;11.55;3.78;;;17.90;99.90;;;17.52;93.27;101744.91;4119442;28;20027;-73
2021/08/14 07:58:14;;;;;;;7.85;3.35;;;17.90;99.90;;;17.57;93.69;101736.41;4102992;28;20067;-73
2021/08/14 08:00:19;;;;;;;6.75;3.58;;;18.00;99.90;;;17.70;93.66;101734.00;4119607;28;20038;-73
2021/08/14 08:02:19;;;;;;;8.88;3.90;;;18.10;99.90;;;17.80;93.63;101731.09;4087498;29;20038;-73
2021/08/14 08:04:20;;;;;;;10.77;4.00;;;18.30;99.90;;;17.92;90.72;101726.97;4104697;28;20028;-73
2021/08/14 08:06:21;;;;;;;7.75;3.28;;;18.30;99.90;;;17.99;90.52;101719.88;4103125;28;20023;-73
2021/08/14 08:08:22;;;;;;;6.55;2.90;;;18.40;99.90;;;18.14;90.58;101731.44;4103168;28;20118;-73
2021/08/14 08:10:23;;;;;;;9.63;3.25;;;18.60;99.90;;;18.18;88.04;101719.41;4135186;28;20026;-73
2021/08/14 08:12:24;;;;;;;8.82;3.17;;;18.70;99.90;;;18.24;88.43;101729.34;4119076;28;20034;-73
2021/08/14 08:14:25;;;;;;;7.60;3.30;;;18.70;99.90;;;18.37;85.93;101724.19;4119216;28;20113;-73
2021/08/14 08:16:26;;;;;;;9.43;3.83;;;18.80;99.90;;;18.34;86.61;101716.53;4104244;28;20059;-73
2021/08/14 08:18:27;;;;;;;8.90;3.22;;;18.90;99.90;;;18.42;87.93;101732.50;4104280;28;20435;-73
2021/08/14 08:20:28;;;;;;;7.20;3.30;;;18.90;99.90;;;18.30;86.27;101731.28;4104050;28;20066;-73
2021/08/14 08:22:29;;;;;;;6.70;3.35;;;18.90;99.90;;;18.32;87.19;101733.75;4104588;28;20027;-73